Nearby METAR Reports

 

KTEB - Teterboro, New Jersey, USA
Distance from station: ENE 2mi, 4km
Updated: 04/12/2024 9:51pm
Clear
Clear
 Wind from WSW
Wind: WSW 13 mph , 20 km/h
Temperature: 57°F , 14°C
Dew Point: 43°F , 6°C
Humidity: 59%
Barometer: 29.49 inHg , 998.6 hPa
Clouds: Clear
Visibility: 10 miles , 16 km
2024/04/13 01:51 KTEB 130151Z 24011KT 10SM CLR 14/06 A2949 RMK AO2 SLP987 T01390056
KNYC - Nyc/Central Park, New York, USA
Distance from station: SE 8mi, 13km
Updated: 04/12/2024 9:51pm
Clear
Clear
 Wind from varies
Wind: varies 6 mph , 9 km/h, Gust: 22 mph , 35 km/h
Temperature: 59°F , 15°C
Dew Point: 41°F , 5°C
Humidity: 51%
Barometer: 29.53 inHg , 1000 hPa
Clouds: Clear
Visibility: 10 miles , 16 km
2024/04/13 01:51 KNYC 130151Z AUTO VRB05G19KT 10SM CLR 15/05 A2953 RMK AO2 SLP991 T01500050 $
 
KCDW - Caldwell, New Jersey, USA
Distance from station: WNW 10mi, 17km
Updated: 04/12/2024 9:53pm
Few Clouds
Few Clouds
 Wind from varies
Wind: varies 5 mph , 7 km/h
Temperature: 57°F , 14°C
Dew Point: 43°F , 6°C
Humidity: 59%
Barometer: 29.49 inHg , 998.6 hPa
Clouds: Few Clouds
Visibility: 10 miles , 16 km
Cloud details: Few Clouds 5500 ft
Few Clouds 9000 ft
2024/04/13 01:53 KCDW 130153Z VRB04KT 10SM FEW055 FEW090 14/06 A2949 RMK AO2 RAB27E42 SLP992 P0000 T01390056
KLGA - Nyc/La Guardia, New York, USA
Distance from station: ESE 12mi, 19km
Updated: 04/12/2024 9:51pm
Mostly cloudy
Mostly cloudy
 Wind from SSW
Wind: SSW 13 mph , 20 km/h, Gust: 23 mph , 37 km/h
Temperature: 59°F , 15°C
Dew Point: 39°F , 4°C
Humidity: 48%
Barometer: 29.51 inHg , 999.3 hPa
Clouds: Mostly cloudy
Visibility: 10 miles , 16 km
Cloud details: Few Clouds 5000 ft
Mostly cloudy 7500 ft
Mostly cloudy 10000 ft
2024/04/13 01:51 KLGA 130151Z 21011G20KT 10SM FEW050 BKN075 BKN100 15/04 A2951 RMK AO2 SLP991 T01500044
 
KEWR - Newark, New Jersey, USA
Distance from station: SSW 12mi, 20km
Updated: 04/12/2024 9:51pm
Partly cloudy
Partly cloudy
 Wind from SSW
Wind: SSW 9 mph , 15 km/h, Gust: 23 mph , 37 km/h
Temperature: 57°F , 14°C
Dew Point: 43°F , 6°C
Humidity: 59%
Barometer: 29.51 inHg , 999.3 hPa
Clouds: Partly cloudy
Visibility: 10 miles , 16 km
Cloud details: Few Clouds 6000 ft
Partly cloudy 9000 ft
2024/04/13 01:51 KEWR 130151Z 21008G20KT 10SM FEW060 SCT090 14/06 A2951 RMK AO2 SLP991 T01440061
KMMU - Morristown Muni, New Jersey, USA
Distance from station: WSW 18mi, 29km
Updated: 04/12/2024 9:45pm
Partly cloudy
Partly cloudy
 Wind from SSW
Wind: SSW 7 mph , 11 km/h
Temperature: 54°F , 12°C
Dew Point: 46°F , 8°C
Humidity: 77%
Barometer: 29.51 inHg , 999.3 hPa
Clouds: Partly cloudy
Visibility: 10 miles , 16 km
Cloud details: Partly cloudy 4800 ft
Partly cloudy 7000 ft
2024/04/13 01:45 KMMU 130145Z 21006KT 10SM SCT048 SCT070 12/08 A2951
 
KJFK - Nyc/Jfk Arpt, New York, USA
Distance from station: SE 23mi, 36km
Updated: 04/12/2024 9:51pm
Mostly cloudy
Mostly cloudy
 Wind from SW
Wind: SW 13 mph , 20 km/h
Temperature: 55°F , 13°C
Dew Point: 45°F , 7°C
Humidity: 67%
Barometer: 29.53 inHg , 1000 hPa
Clouds: Mostly cloudy
Visibility: 10 miles , 16 km
Cloud details: Mostly cloudy 8500 ft
Mostly cloudy 13000 ft
2024/04/13 01:51 KJFK 130151Z 22011KT 10SM BKN085 BKN130 13/07 A2953 RMK AO2 SLP999 T01330072
KHPN - White Plains, New York, USA
Distance from station: NE 25mi, 40km
Updated: 04/12/2024 9:56pm
Clear
Clear
 Wind from varies
Wind: varies 5 mph , 7 km/h
Temperature: 55°F , 13°C
Dew Point: 41°F , 5°C
Humidity: 59%
Barometer: 29.49 inHg , 998.6 hPa
Clouds: Clear
Visibility: 10 miles , 16 km
2024/04/13 01:56 KHPN 130156Z VRB04KT 10SM CLR 13/05 A2949 RMK AO2 SLP985 T01330050
 
KSMQ - Somerville, New Jersey, USA
Distance from station: WSW 34mi, 55km
Updated: 04/12/2024 9:53pm
Clear
Clear
 
Temperature: 54°F , 12°C
Dew Point: 45°F , 7°C
Humidity: 72%
Barometer: 29.49 inHg , 998.6 hPa
Clouds: Clear
Visibility: 10 miles , 16 km
2024/04/13 01:53 KSMQ 130153Z AUTO 10SM CLR 12/07 A2949 RMK AO2 SLP986 T01220067
K12N - Andover, New Jersey, USA
Distance from station: WNW 36mi, 57km
Updated: 04/12/2024 9:54pm

 Wind from SSW
Wind: SSW 9 mph , 15 km/h
Temperature: 54°F , 12°C
Dew Point: 43°F , 6°C
Humidity: 67%
Barometer: 29.48 inHg , 998.3 hPa
2024/04/13 01:54 K12N 130154Z AUTO 21008KT 12/06 A2948 RMK AO1 SLP981 T01170061
 
KFRG - Farmingdale, New York, USA
Distance from station: ESE 36mi, 58km
Updated: 04/12/2024 9:53pm
Partly cloudy
Partly cloudy
 Wind from S
Wind: S 6 mph , 9 km/h
Temperature: 54°F , 12°C
Dew Point: 46°F , 8°C
Humidity: 77%
Barometer: 29.53 inHg , 1000 hPa
Clouds: Partly cloudy
Visibility: 10 miles , 16 km
Cloud details: Partly cloudy 8000 ft
2024/04/13 01:53 KFRG 130153Z AUTO 19005KT 10SM SCT080 12/08 A2953 RMK AO2 SLP000 T01170078
KFWN - Sussex, New Jersey, USA
Distance from station: NW 37mi, 60km
Updated: 04/12/2024 9:53pm
Few Clouds
Few Clouds
 Wind from calm
Wind: Calm
Temperature: 52°F , 11°C
Dew Point: 45°F , 7°C
Humidity: 77%
Barometer: 29.47 inHg , 998 hPa
Clouds: Few Clouds
Visibility: 10 miles , 16 km
Cloud details: Few Clouds 5500 ft
2024/04/13 01:53 KFWN 130153Z AUTO 00000KT 10SM FEW055 11/07 A2947 RMK AO2 SLP979 T01060067
 
KSWF - Newburgh/Stewart, New York, USA
Distance from station: 0 45mi, 72km
Updated: 04/12/2024 9:45pm
Few Clouds
Few Clouds
 Wind from WSW
Wind: WSW 10 mph , 17 km/h, Gust: 16 mph , 26 km/h
Temperature: 54°F , 12°C
Dew Point: 45°F , 7°C
Humidity: 72%
Barometer: 29.46 inHg , 997.6 hPa
Clouds: Few Clouds
Visibility: 10 miles , 16 km
Cloud details: Few Clouds 5000 ft
2024/04/13 01:45 KSWF 130145Z 24009G14KT 10SM FEW050 12/07 A2946
KMGJ - Montgomery, New York, USA
Distance from station: NNW 47mi, 75km
Updated: 04/12/2024 9:54pm
Few Clouds
Few Clouds
 Wind from SSW
Wind: SSW 10 mph , 17 km/h, Gust: 21 mph , 33 km/h
Temperature: 52°F , 11°C
Dew Point: 43°F , 6°C
Humidity: 72%
Barometer: 29.44 inHg , 997 hPa
Clouds: Few Clouds
Visibility: 10 miles , 16 km
Cloud details: Few Clouds 6000 ft
Few Clouds 10000 ft
2024/04/13 01:54 KMGJ 130154Z AUTO 20009G18KT 10SM FEW060 FEW100 11/06 A2944 RMK AO2 SLP968 T01060061
 
KBLM - Belmar/Farmdale, New Jersey, USA
Distance from station: S 47mi, 76km
Updated: 04/12/2024 9:56pm
Few Clouds
Few Clouds
 Wind from S
Wind: S 6 mph , 9 km/h
Temperature: 54°F , 12°C
Dew Point: 46°F , 8°C
Humidity: 77%
Barometer: 29.55 inHg , 1000.7 hPa
Clouds: Few Clouds
Visibility: 10 miles , 16 km
Cloud details: Few Clouds 7000 ft
2024/04/13 01:56 KBLM 130156Z AUTO 17005KT 10SM FEW070 12/08 A2955 RMK AO2 SLP006 T01220078
KDXR - Danbury, Connecticut, USA
Distance from station: NE 47mi, 76km
Updated: 04/12/2024 9:53pm
Clear
Clear
 Wind from SW
Wind: SW 13 mph , 20 km/h, Gust: 21 mph , 33 km/h
Temperature: 55°F , 13°C
Dew Point: 41°F , 5°C
Humidity: 59%
Barometer: 29.50 inHg , 999 hPa
Clouds: Clear
Visibility: 10 miles , 16 km
2024/04/13 01:53 KDXR 130153Z 23011G18KT 10SM CLR 13/05 A2950 RMK AO2 SLP988 T01330050
 
KISP - Islip, New York, USA
Distance from station: E 52mi, 83km
Updated: 04/12/2024 9:56pm
Mostly cloudy
Mostly cloudy
 Wind from S
Wind: S 6 mph , 9 km/h
Temperature: 54°F , 12°C
Dew Point: 46°F , 8°C
Humidity: 77%
Barometer: 29.53 inHg , 1000 hPa
Clouds: Mostly cloudy
Visibility: 10 miles , 16 km
Cloud details: Few Clouds 6500 ft
Mostly cloudy 8500 ft
2024/04/13 01:56 KISP 130156Z 19005KT 10SM FEW065 BKN085 12/08 A2953 RMK AO2 RAB01E11 SLP000 P0000 T01170078
KBDR - Bridgeport, Connecticut, USA
Distance from station: ENE 54mi, 87km
Updated: 04/12/2024 9:52pm
Few Clouds
Few Clouds
 Wind from SSW
Wind: SSW 16 mph , 26 km/h
Temperature: 54°F , 12°C
Dew Point: 45°F , 7°C
Humidity: 72%
Barometer: 29.51 inHg , 999.3 hPa
Clouds: Few Clouds
Visibility: 10 miles , 16 km
Cloud details: Few Clouds 10000 ft
2024/04/13 01:52 KBDR 130152Z 20014KT 10SM FEW100 12/07 A2951 RMK AO2 SLP992 T01220072
 
KTTN - Trenton, New Jersey, USA
Distance from station: SW 55mi, 88km
Updated: 04/12/2024 9:53pm
Partly cloudy
Partly cloudy
 Wind from SW
Wind: SW 10 mph , 17 km/h, Gust: 22 mph , 35 km/h
Temperature: 57°F , 14°C
Dew Point: 41°F , 5°C
Humidity: 55%
Barometer: 29.52 inHg , 999.7 hPa
Clouds: Partly cloudy
Visibility: 10 miles , 16 km
Cloud details: Few Clouds 7000 ft
Partly cloudy 8500 ft
2024/04/13 01:53 KTTN 130153Z 23009G19KT 10SM FEW070 SCT085 14/05 A2952 RMK AO2 SLP990 T01390050
KPOU - Poughkeepsie, New York, USA
Distance from station: N 55mi, 89km
Updated: 04/12/2024 9:53pm
Mostly cloudy
Mostly cloudy
 Wind from varies
Wind: varies 6 mph , 9 km/h
Temperature: 55°F , 13°C
Dew Point: 43°F , 6°C
Humidity: 63%
Barometer: 29.45 inHg , 997.3 hPa
Clouds: Mostly cloudy
Visibility: 10 miles , 16 km
Cloud details: Few Clouds 6000 ft
Mostly cloudy 9500 ft
2024/04/13 01:53 KPOU 130153Z VRB05KT 10SM FEW060 BKN095 13/06 A2945 RMK AO2 SLP970 T01330056
 
KNEL - Lakehurst Nas, New Jersey, USA
Distance from station: SSW 59mi, 95km
Updated: 04/04/2024 7:00am
NOT Current
Overcast
Overcast
 Wind from WNW
Wind: WNW 7 mph , 11 km/h
Temperature: 37°F , 3°C
Wind Chill: 32°F , 0°C
Dew Point: 36°F , 2°C
Humidity: 93%
Barometer: 29.35 inHg , 993.9 hPa
Clouds: Overcast
Cloud details: Overcast 4800 ft
2024/04/04 11:00 KNEL 041100Z AUTO 30006KT OVC048 03/02 A2935 RMK SLP936 T00330022 PNO $ RTX FIBI
KWRI - Wrightst/Mcguire, New Jersey, USA
Distance from station: SSW 63mi, 102km
Updated: 04/12/2024 8:55pm
NOT Current
Partly cloudy
Partly cloudy
 Wind from WSW
Wind: WSW 10 mph , 17 km/h
Temperature: 54°F , 12°C
Dew Point: 46°F , 8°C
Humidity: 77%
Barometer: 29.52 inHg , 999.7 hPa
Clouds: Partly cloudy
Visibility: 10 miles , 16 km
Cloud details: Partly cloudy 9000 ft
2024/04/13 00:55 KWRI 130055Z 24009KT 10SM SCT090 12/08 A2952 RMK AO2A RAE01 SLP996 P0000 T01230082
 
KHWV - Shirley, New York, USA
Distance from station: E 64mi, 103km
Updated: 04/12/2024 9:56pm
Mostly cloudy
Mostly cloudy
 Wind from S
Wind: S 6 mph , 9 km/h
Temperature: 52°F , 11°C
Dew Point: 45°F , 7°C
Humidity: 77%
Barometer: 29.55 inHg , 1000.7 hPa
Clouds: Mostly cloudy
Visibility: 10 miles , 16 km
Cloud details: Mostly cloudy 9000 ft
2024/04/13 01:56 KHWV 130156Z AUTO 19005KT 10SM BKN090 11/07 A2955 RMK AO2 SLP006 T01110072
KMJX - Toms River, New Jersey, USA
Distance from station: S 64mi, 104km
Updated: 04/12/2024 9:56pm
Clear
Clear
 Wind from SSW
Wind: SSW 7 mph , 11 km/h
Temperature: 57°F , 14°C
Dew Point: 43°F , 6°C
Humidity: 59%
Barometer: 29.56 inHg , 1001 hPa
Clouds: Clear
Visibility: 10 miles , 16 km
2024/04/13 01:56 KMJX 130156Z AUTO 20006KT 10SM CLR 14/06 A2956 RMK AO2 SLP012 T01390061
 
KDYL - Doylestown, Pennsylvania, USA
Distance from station: SW 65mi, 104km
Updated: 04/12/2024 9:54pm
Partly cloudy
Partly cloudy
 Wind from WSW
Wind: WSW 9 mph , 15 km/h, Gust: 17 mph , 28 km/h
Temperature: 57°F , 14°C
Dew Point: 41°F , 5°C
Humidity: 55%
Barometer: 29.51 inHg , 999.3 hPa
Clouds: Partly cloudy
Visibility: 10 miles , 16 km
Cloud details: Partly cloudy 5500 ft
2024/04/13 01:54 KDYL 130154Z AUTO 24008G15KT 10SM SCT055 14/05 A2951 RMK AO2 SLP992 T01440050
KOXC - Oxford/Waterbury, Connecticut, USA
Distance from station: NE 65mi, 105km
Updated: 04/12/2024 9:51pm
Clear
Clear
 Wind from SW
Wind: SW 10 mph , 17 km/h, Gust: 18 mph , 30 km/h
Temperature: 54°F , 12°C
Dew Point: 43°F , 6°C
Humidity: 67%
Barometer: 29.50 inHg , 999 hPa
Clouds: Clear
Visibility: 10 miles , 16 km
2024/04/13 01:51 KOXC 130151Z AUTO 22009G16KT 190V260 10SM CLR 12/06 A2950 RMK AO2 SLP001 T01170056
 
KMSV - Monticello, New York, USA
Distance from station: NNW 69mi, 111km
Updated: 03/05/2024 1:38pm
NOT Current
Light rain, Mist, Overcast
Light rain, Mist, Overcast
 Wind from E
Wind: E 8 mph , 13 km/h
Temperature: 43°F , 6°C
Wind Chill: 38°F , 3°C
Dew Point: 41°F , 5°C
Humidity: 93%
Barometer: 30.09 inHg , 1019 hPa
Summary: Light rain, Mist
Clouds: Overcast
Visibility: 03 miles , 5 km
Cloud details: Overcast 400 ft
2024/03/05 18:38 KMSV 051838Z 09007KT 03SM -RA BR OVC004 06/05 A3009 RMK CIG003V008
KHVN - New Haven/Tweed, Connecticut, USA
Distance from station: ENE 70mi, 112km
Updated: 04/12/2024 9:53pm
Overcast
Overcast
 Wind from S
Wind: S 12 mph , 19 km/h
Temperature: 54°F , 12°C
Dew Point: 46°F , 8°C
Humidity: 77%
Barometer: 29.52 inHg , 999.7 hPa
Clouds: Overcast
Visibility: 10 miles , 16 km
Cloud details: Mostly cloudy 9000 ft
Overcast 11000 ft
2024/04/13 01:53 KHVN 130153Z 19010KT 10SM BKN090 OVC110 12/08 A2952 RMK AO2 SLP994 T01170083
 
KMPO - Mt. Pocono, Pennsylvania, USA
Distance from station: WNW 70mi, 113km
Updated: 04/12/2024 10:12pm
Overcast
Overcast
 Wind from SW
Wind: SW 10 mph , 17 km/h, Gust: 23 mph , 37 km/h
Temperature: 45°F , 7°C
Wind Chill: 40°F , 4°C
Dew Point: 39°F , 4°C
Humidity: 81%
Barometer: 29.46 inHg , 997.6 hPa
Clouds: Overcast
Visibility: 10 miles , 16 km
Cloud details: Few Clouds 2300 ft
Mostly cloudy 3300 ft
Overcast 7500 ft
2024/04/13 02:12 KMPO 130212Z AUTO 23009G20KT 10SM FEW023 BKN033 OVC075 07/04 A2946 RMK AO2 PK WND 25026/0156 RAE12 P0001 T00720044
KPNE - Philadelphia/Ne, Pennsylvania, USA
Distance from station: SW 72mi, 116km
Updated: 04/12/2024 9:54pm
Overcast
Overcast
 Wind from WSW
Wind: WSW 13 mph , 20 km/h, Gust: 29 mph , 46 km/h
Temperature: 61°F , 16°C
Dew Point: 39°F , 4°C
Humidity: 45%
Barometer: 29.55 inHg , 1000.7 hPa
Clouds: Overcast
Visibility: 10 miles , 16 km
Cloud details: Overcast 9000 ft
2024/04/13 01:54 KPNE 130154Z 24011G25KT 10SM OVC090 16/04 A2955 RMK AO2 PK WND 23030/0123 SLP005 T01610044 $
 
KABE - Allentown, Pennsylvania, USA
Distance from station: W 73mi, 117km
Updated: 04/12/2024 9:51pm
Mostly cloudy
Mostly cloudy
 Wind from SW
Wind: SW 15 mph , 24 km/h, Gust: 23 mph , 37 km/h
Temperature: 54°F , 12°C
Dew Point: 41°F , 5°C
Humidity: 63%
Barometer: 29.50 inHg , 999 hPa
Clouds: Mostly cloudy
Visibility: 10 miles , 16 km
Cloud details: Mostly cloudy 6000 ft
Mostly cloudy 7500 ft
2024/04/13 01:51 KABE 130151Z 23013G20KT 10SM BKN060 BKN075 12/05 A2950 RMK AO2 PK WND 22030/0117 RAE0057 SLP987 P0000 T01220050
KUKT - Quakertown Arp, Pennsylvania, USA
Distance from station: WSW 74mi, 119km
Updated: 04/12/2024 9:55pm
Mostly cloudy
Mostly cloudy
 Wind from W
Wind: W 10 mph , 17 km/h, Gust: 21 mph , 33 km/h
Temperature: 55°F , 13°C
Dew Point: 43°F , 6°C
Humidity: 63%
Barometer: 29.52 inHg , 999.7 hPa
Clouds: Mostly cloudy
Visibility: 10 miles , 16 km
Cloud details: Few Clouds 3600 ft
Partly cloudy 4700 ft
Mostly cloudy 6000 ft
2024/04/13 01:55 KUKT 130155Z AUTO 26009G18KT 10SM FEW036 SCT047 BKN060 13/06 A2952 RMK AO2
 
KVAY - Mount Holly, New Jersey, USA
Distance from station: SSW 75mi, 120km
Updated: 04/12/2024 9:54pm
Light rain, Overcast
Light rain, Overcast
 Wind from SSW
Wind: SSW 8 mph , 13 km/h, Gust: 26 mph , 43 km/h
Temperature: 57°F , 14°C
Dew Point: 45°F , 7°C
Humidity: 63%
Barometer: 29.55 inHg , 1000.7 hPa
Summary: Light rain
Clouds: Overcast
Visibility: 10 miles , 16 km
Cloud details: Overcast 7000 ft
2024/04/13 01:54 KVAY 130154Z AUTO 21007G23KT 170V240 10SM -RA OVC070 14/07 A2955 RMK AO2 RAB27 SLP007 P0001 T01440067
KXLL - Allentown Queen, Pennsylvania, USA
Distance from station: WSW 76mi, 122km
Updated: 04/12/2024 9:55pm
Rain, Mostly cloudy
Rain, Mostly cloudy
 Wind from SW
Wind: SW 13 mph , 20 km/h, Gust: 20 mph , 31 km/h
Temperature: 54°F , 12°C
Dew Point: 45°F , 7°C
Humidity: 72%
Barometer: 29.52 inHg , 999.7 hPa
Summary: Rain
Clouds: Mostly cloudy
Visibility: 10 miles , 16 km
Cloud details: Mostly cloudy 4700 ft
Mostly cloudy 5500 ft
Mostly cloudy 8000 ft
2024/04/13 01:55 KXLL 130155Z AUTO 23011G17KT 10SM RA BKN047 BKN055 BKN080 12/07 A2952 RMK AO2
 
KFOK - Westhampton Beac, New York, USA
Distance from station: E 77mi, 124km
Updated: 04/12/2024 9:53pm
Overcast
Overcast
 Wind from varies
Wind: varies 6 mph , 9 km/h, Gust: 16 mph , 26 km/h
Temperature: 52°F , 11°C
Dew Point: 46°F , 8°C
Humidity: 82%
Barometer: 29.57 inHg , 1001.4 hPa
Clouds: Overcast
Visibility: 10 miles , 16 km
Cloud details: Mostly cloudy 7000 ft
Overcast 8500 ft
2024/04/13 01:53 KFOK 130153Z VRB05G14KT 10SM BKN070 OVC085 11/08 A2957 RMK AO1 SLP013 T01060078
KLOM - Philly Wings F, Pennsylvania, USA
Distance from station: SW 79mi, 128km
Updated: 04/12/2024 9:55pm
Mostly cloudy
Mostly cloudy
 Wind from WSW
Wind: WSW 15 mph , 24 km/h, Gust: 24 mph , 39 km/h
Temperature: 57°F , 14°C
Dew Point: 41°F , 5°C
Humidity: 55%
Barometer: 29.54 inHg , 1000.3 hPa
Clouds: Mostly cloudy
Visibility: 10 miles , 16 km
Cloud details: Partly cloudy 7500 ft
Mostly cloudy 10000 ft
2024/04/13 01:55 KLOM 130155Z AUTO 24013G21KT 10SM SCT075 BKN100 14/05 A2954 RMK AO2 T01430049
 
KMMK - Meriden, Connecticut, USA
Distance from station: NE 80mi, 128km
Updated: 04/12/2024 9:53pm
Clear
Clear
 Wind from S
Wind: S 9 mph , 15 km/h
Temperature: 54°F , 12°C
Dew Point: 43°F , 6°C
Humidity: 67%
Barometer: 29.50 inHg , 999 hPa
Clouds: Clear
Visibility: 10 miles , 16 km
2024/04/13 01:53 KMMK 130153Z AUTO 17008KT 10SM CLR 12/06 A2950 RMK AO2 SLP990 T01170056
KPTW - Pottstown, Pennsylvania, USA
Distance from station: WSW 88mi, 141km
Updated: 04/12/2024 9:54pm
Light rain, Overcast
Light rain, Overcast
 Wind from WSW
Wind: WSW 9 mph , 15 km/h, Gust: 31 mph , 50 km/h
Temperature: 55°F , 13°C
Dew Point: 43°F , 6°C
Humidity: 63%
Barometer: 29.55 inHg , 1000.7 hPa
Summary: Light rain
Clouds: Overcast
Visibility: 10 miles , 16 km
Cloud details: Few Clouds 4800 ft
Mostly cloudy 5500 ft
Overcast 7500 ft
2024/04/13 01:54 KPTW 130154Z AUTO 24008G27KT 10SM -RA FEW048 BKN055 OVC075 13/06 A2955 RMK AO2 PK WND 25035/0143 RAB34 SLP003 P0000 T01330061
 
KSNC - Chester, Connecticut, USA
Distance from station: ENE 90mi, 146km
Updated: 04/12/2024 9:55pm
Partly cloudy
Partly cloudy
 Wind from varies
Wind: varies 6 mph , 9 km/h
Temperature: 50°F , 10°C
Wind Chill: 48°F , 9°C
Dew Point: 48°F , 9°C
Humidity: 94%
Barometer: 29.53 inHg , 1000 hPa
Clouds: Partly cloudy
Visibility: 10 miles , 16 km
Cloud details: Few Clouds 7000 ft
Partly cloudy 8500 ft
2024/04/13 01:55 KSNC 130155Z AUTO VRB05KT 10SM FEW070 SCT085 10/09 A2953 RMK AO2
KPHL - Philadelphia, Pennsylvania, USA
Distance from station: SW 91mi, 146km
Updated: 04/12/2024 9:54pm
Mostly cloudy
Mostly cloudy
 Wind from SW
Wind: SW 12 mph , 19 km/h
Temperature: 61°F , 16°C
Dew Point: 41°F , 5°C
Humidity: 48%
Barometer: 29.55 inHg , 1000.7 hPa
Clouds: Mostly cloudy
Visibility: 10 miles , 16 km
Cloud details: Mostly cloudy 7000 ft
Mostly cloudy 9500 ft
2024/04/13 01:54 KPHL 130154Z 22010KT 10SM BKN070 BKN095 16/05 A2955 RMK AO2 PK WND 26028/0104 SLP007 T01610050
 
KAVP - Avoca/Wilkes B., Pennsylvania, USA
Distance from station: WNW 91mi, 147km
Updated: 04/12/2024 9:54pm
Mostly cloudy
Mostly cloudy
 Wind from SW
Wind: SW 15 mph , 24 km/h, Gust: 30 mph , 48 km/h
Temperature: 52°F , 11°C
Dew Point: 43°F , 6°C
Humidity: 72%
Barometer: 29.44 inHg , 997 hPa
Clouds: Mostly cloudy
Visibility: 10 miles , 16 km
Cloud details: Mostly cloudy 4000 ft
2024/04/13 01:54 KAVP 130154Z AUTO 23013G26KT 10SM BKN040 11/06 A2944 RMK AO2 PK WND 21026/0150 RAE11 SLP966 P0005 T01060061
KHFD - Hartford/Brainar, Connecticut, USA
Distance from station: NE 96mi, 155km
Updated: 04/12/2024 9:53pm
Clear
Clear
 Wind from S
Wind: S 8 mph , 13 km/h
Temperature: 55°F , 13°C
Dew Point: 43°F , 6°C
Humidity: 63%
Barometer: 29.48 inHg , 998.3 hPa
Clouds: Clear
Visibility: 10 miles , 16 km
2024/04/13 01:53 KHFD 130153Z 18007KT 10SM CLR 13/06 A2948 RMK AO2 SLP982 T01330061
 
KHTO - East Hampton, New York, USA
Distance from station: E 96mi, 155km
Updated: 05/21/2022 1:35pm
NOT Current
Clear
Clear
 Wind from WNW
Wind: WNW 5 mph , 7 km/h
Temperature: 81°F , 27°C
Heat Index: 83°F , 28°C
Dew Point: 66°F , 19°C
Humidity: 62%
Barometer: 30.00 inHg , 1015.9 hPa
Clouds: Clear
Visibility: 10 miles , 16 km
2022/05/21 17:35 KHTO 211735Z AUTO 30004KT 10SM CLR 27/19 A3000 RMK AO2 T02670193
KACY - Atlantic City, New Jersey, USA
Distance from station: SSW 99mi, 160km
Updated: 04/12/2024 7:54pm
NOT Current
Few Clouds
Few Clouds
 Wind from SW
Wind: SW 15 mph , 24 km/h
Temperature: 63°F , 17°C
Dew Point: 39°F , 4°C
Humidity: 42%
Barometer: 29.55 inHg , 1000.7 hPa
Clouds: Few Clouds
Visibility: 10 miles , 16 km
Cloud details: Few Clouds 8500 ft
2024/04/12 23:54 KACY 122354Z 22013KT 10SM FEW085 17/04 A2955 RMK AO2 SLP007 T01670044 10206 20167 51025 $